createdAt,value
2019-02-27T00:00:13.410Z,48.58
2019-02-27T00:01:16.701Z,57.13
2019-02-27T00:02:13.744Z,56.88
2019-02-27T00:03:13.917Z,52.00
2019-02-27T00:04:14.089Z,48.34
2019-02-27T00:05:14.261Z,48.58
2019-02-27T00:06:15.905Z,58.11
2019-02-27T00:07:14.607Z,49.07
2019-02-27T00:08:14.773Z,54.20
2019-02-27T00:09:14.948Z,65.19
2019-02-27T00:10:15.129Z,47.85
2019-02-27T00:11:15.293Z,49.07
2019-02-27T00:12:16.893Z,56.64
2019-02-27T00:13:15.637Z,50.54
2019-02-27T00:14:15.810Z,49.56
2019-02-27T00:15:15.982Z,52.98
2019-02-27T00:16:16.153Z,64.70
2019-02-27T00:17:18.085Z,53.71
2019-02-27T00:18:16.496Z,56.64
2019-02-27T00:19:16.663Z,58.84
2019-02-27T00:20:16.835Z,58.35
2019-02-27T00:21:17.006Z,61.04
2019-02-27T00:22:17.536Z,50.05
2019-02-27T00:23:17.355Z,50.05
2019-02-27T00:24:17.531Z,56.40
2019-02-27T00:25:17.703Z,50.78
2019-02-27T00:26:17.866Z,57.62
2019-02-27T00:27:18.030Z,52.98
2019-02-27T00:28:18.203Z,53.22
2019-02-27T00:29:18.374Z,53.71
2019-02-27T00:30:18.558Z,73.24
2019-02-27T00:31:18.724Z,49.32
2019-02-27T00:32:19.225Z,49.80
2019-02-27T00:33:19.067Z,58.84
2019-02-27T00:34:19.236Z,48.10
2019-02-27T00:35:19.406Z,48.58
2019-02-27T00:36:19.584Z,58.59
2019-02-27T00:37:19.760Z,54.69
2019-02-27T00:38:19.933Z,53.71
2019-02-27T00:39:20.101Z,56.15
2019-02-27T00:40:20.273Z,57.13
2019-02-27T00:41:20.442Z,49.56
2019-02-27T00:42:22.347Z,51.27
2019-02-27T00:43:20.801Z,48.58
2019-02-27T00:44:20.957Z,54.93
2019-02-27T00:45:21.129Z,62.99
2019-02-27T00:46:21.304Z,56.88
2019-02-27T00:47:21.476Z,49.07
2019-02-27T00:48:26.024Z,48.58
2019-02-27T00:49:21.819Z,53.22
2019-02-27T00:50:21.988Z,48.10
2019-02-27T00:51:22.161Z,50.78
2019-02-27T00:52:22.330Z,56.15
2019-02-27T00:53:24.433Z,60.79
2019-02-27T00:54:22.674Z,50.29
2019-02-27T00:55:22.854Z,50.54
2019-02-27T00:56:23.016Z,50.78
2019-02-27T00:57:23.194Z,48.58
2019-02-27T00:58:26.775Z,47.85
2019-02-27T00:59:23.531Z,48.34
2019-02-27T01:00:23.710Z,47.12
2019-02-27T01:01:23.875Z,55.42
2019-02-27T01:02:24.044Z,57.13
2019-02-27T01:03:26.245Z,49.56
2019-02-27T01:04:24.388Z,54.44
2019-02-27T01:05:24.752Z,48.58
2019-02-27T01:06:24.756Z,59.08
2019-02-27T01:08:27.654Z,58.84
2019-02-27T01:09:25.247Z,65.43
2019-02-27T01:10:25.412Z,50.78
2019-02-27T01:11:25.585Z,49.56
2019-02-27T01:12:25.916Z,56.88
2019-02-27T01:13:25.925Z,55.66
2019-02-27T01:14:26.097Z,56.88
2019-02-27T01:15:26.268Z,60.79
2019-02-27T01:16:26.441Z,48.58
2019-02-27T01:17:26.607Z,47.61
2019-02-27T01:18:30.543Z,47.12
2019-02-27T01:19:26.949Z,54.44
2019-02-27T01:20:27.119Z,55.66
2019-02-27T01:21:27.293Z,56.15
2019-02-27T01:22:27.460Z,49.07
2019-02-27T01:23:27.631Z,49.32
2019-02-27T01:24:27.801Z,50.54
2019-02-27T01:25:27.975Z,48.83
2019-02-27T01:26:30.802Z,49.32
2019-02-27T01:27:28.312Z,65.19
2019-02-27T01:28:28.486Z,51.03
2019-02-27T01:29:28.656Z,58.11
2019-02-27T01:30:28.826Z,53.47
2019-02-27T01:31:28.999Z,55.66
2019-02-27T01:32:31.161Z,59.33
2019-02-27T01:33:29.339Z,50.78
2019-02-27T01:34:29.504Z,48.58
2019-02-27T01:35:29.669Z,49.80
2019-02-27T01:36:29.841Z,56.15
2019-02-27T01:37:31.787Z,55.42
2019-02-27T01:38:30.183Z,48.34
2019-02-27T01:39:30.357Z,52.98
2019-02-27T01:40:30.539Z,54.69
2019-02-27T01:41:30.695Z,47.61
2019-02-27T01:42:32.784Z,49.80
2019-02-27T01:43:31.046Z,56.15
2019-02-27T01:44:31.258Z,56.15
2019-02-27T01:45:31.388Z,55.66
2019-02-27T01:46:31.564Z,47.12
2019-02-27T01:47:35.908Z,53.71
2019-02-27T01:48:31.901Z,50.05
2019-02-27T01:49:32.077Z,56.64
2019-02-27T01:50:32.245Z,52.25
2019-02-27T01:51:32.419Z,47.61
2019-02-27T01:52:34.107Z,52.73
2019-02-27T01:53:32.762Z,50.78
2019-02-27T01:54:32.933Z,61.04
2019-02-27T01:55:33.097Z,52.00
2019-02-27T01:56:33.271Z,47.12
2019-02-27T01:57:34.141Z,61.52
2019-02-27T01:59:33.794Z,47.61
2019-02-27T02:00:33.962Z,48.58
2019-02-27T02:01:34.130Z,48.34
2019-02-27T02:02:34.891Z,67.87
2019-02-27T02:03:34.479Z,55.66
2019-02-27T02:04:34.653Z,57.13
2019-02-27T02:05:34.821Z,48.58
2019-02-27T02:06:34.991Z,53.96
2019-02-27T02:07:35.164Z,54.20
2019-02-27T02:08:35.331Z,61.28
2019-02-27T02:09:35.520Z,52.73
2019-02-27T02:10:35.675Z,48.83
2019-02-27T02:11:35.845Z,48.10
2019-02-27T02:12:36.019Z,47.61
2019-02-27T02:13:36.191Z,55.42
2019-02-27T02:14:36.372Z,48.10
2019-02-27T02:15:36.563Z,48.83
2019-02-27T02:16:36.732Z,50.29
2019-02-27T02:17:38.167Z,48.34
2019-02-27T02:18:37.075Z,62.26
2019-02-27T02:19:37.243Z,55.66
2019-02-27T02:20:37.417Z,54.69
2019-02-27T02:21:37.587Z,58.84
2019-02-27T02:22:38.911Z,47.12
2019-02-27T02:23:37.932Z,53.22
2019-02-27T02:24:38.101Z,48.58
2019-02-27T02:25:38.269Z,51.51
2019-02-27T02:26:38.445Z,49.07
2019-02-27T02:27:39.113Z,47.85
2019-02-27T02:28:38.783Z,47.85
2019-02-27T02:29:38.953Z,48.34
2019-02-27T02:30:39.126Z,56.40
2019-02-27T02:31:41.605Z,52.49
2019-02-27T02:32:39.470Z,65.92
2019-02-27T02:33:39.641Z,56.64
2019-02-27T02:34:40.906Z,53.71
2019-02-27T02:35:39.984Z,49.56
2019-02-27T02:36:40.159Z,48.58
2019-02-27T02:37:40.330Z,47.61
2019-02-27T02:38:40.495Z,47.61
2019-02-27T02:39:40.663Z,66.41
2019-02-27T02:40:40.835Z,61.28
2019-02-27T02:41:46.789Z,56.88
2019-02-27T02:42:41.187Z,47.61
2019-02-27T02:43:42.018Z,49.80
2019-02-27T02:44:41.516Z,52.73
2019-02-27T02:45:41.698Z,57.86
2019-02-27T02:46:45.448Z,52.98
2019-02-27T02:47:42.037Z,57.62
2019-02-27T02:48:42.206Z,56.40
2019-02-27T02:49:43.640Z,52.49
2019-02-27T02:50:42.545Z,56.88
2019-02-27T02:51:42.715Z,48.10
2019-02-27T02:52:42.891Z,55.91
2019-02-27T02:53:43.053Z,52.49
2019-02-27T02:54:43.227Z,52.98
2019-02-27T02:55:47.500Z,48.10
2019-02-27T02:56:43.577Z,56.88
2019-02-27T02:57:43.736Z,57.86
2019-02-27T02:58:48.279Z,46.39
2019-02-27T02:59:44.075Z,62.74
2019-02-27T03:00:44.244Z,54.93
2019-02-27T03:01:45.669Z,59.33
2019-02-27T03:02:44.595Z,73.24
2019-02-27T03:03:44.763Z,46.14
2019-02-27T03:04:48.455Z,48.58
2019-02-27T03:05:45.096Z,47.85
2019-02-27T03:06:45.270Z,48.34
2019-02-27T03:07:45.694Z,47.85
2019-02-27T03:08:45.616Z,47.12
2019-02-27T03:09:45.776Z,52.00
2019-02-27T03:10:45.951Z,59.57
2019-02-27T03:11:46.123Z,48.83
2019-02-27T03:12:46.297Z,47.12
2019-02-27T03:13:46.476Z,64.21
2019-02-27T03:14:53.154Z,50.78
2019-02-27T03:15:46.824Z,47.36
2019-02-27T03:16:46.985Z,50.05
2019-02-27T03:17:47.150Z,48.34
2019-02-27T03:18:47.322Z,47.85
2019-02-27T03:19:47.490Z,47.85
2019-02-27T03:20:51.770Z,47.85
2019-02-27T03:21:47.832Z,47.61
2019-02-27T03:22:48.003Z,51.51
2019-02-27T03:23:52.214Z,48.58
2019-02-27T03:24:48.347Z,48.34
2019-02-27T03:25:48.521Z,62.01
2019-02-27T03:26:51.653Z,52.98
2019-02-27T03:27:48.865Z,50.05
2019-02-27T03:28:49.029Z,51.76
2019-02-27T03:29:53.500Z,51.51
2019-02-27T03:30:49.373Z,51.03
2019-02-27T03:31:57.760Z,54.20
2019-02-27T03:32:49.725Z,55.66
2019-02-27T03:33:49.889Z,59.33
2019-02-27T03:34:51.162Z,56.64
2019-02-27T03:35:50.226Z,59.81
2019-02-27T03:36:50.396Z,52.73
2019-02-27T03:37:50.564Z,48.58
2019-02-27T03:38:50.737Z,56.15
2019-02-27T03:39:50.909Z,47.85
2019-02-27T03:40:51.085Z,56.15
2019-02-27T03:41:58.461Z,55.42
2019-02-27T03:42:51.420Z,59.33
2019-02-27T03:43:51.589Z,49.56
2019-02-27T03:44:55.895Z,55.66
2019-02-27T03:45:51.924Z,51.51
2019-02-27T03:46:52.103Z,50.54
2019-02-27T03:47:52.960Z,50.78
2019-02-27T03:48:52.434Z,51.27
2019-02-27T03:49:52.600Z,62.26
2019-02-27T03:50:52.778Z,48.10
2019-02-27T03:51:52.943Z,50.05
2019-02-27T03:52:53.110Z,59.33
2019-02-27T03:53:53.280Z,49.07
2019-02-27T03:54:56.849Z,49.32
2019-02-27T03:55:53.622Z,55.18
2019-02-27T03:56:53.804Z,65.67
2019-02-27T03:57:55.321Z,51.51
2019-02-27T03:58:54.133Z,47.36
2019-02-27T03:59:54.311Z,48.83
2019-02-27T04:00:54.472Z,48.58
2019-02-27T04:01:54.645Z,48.10
2019-02-27T04:02:54.816Z,48.58
2019-02-27T04:03:55.444Z,49.32
2019-02-27T04:04:55.155Z,54.20
2019-02-27T04:05:55.331Z,47.61
2019-02-27T04:06:56.254Z,47.12
2019-02-27T04:07:55.676Z,51.03
2019-02-27T04:08:55.841Z,61.52
2019-02-27T04:09:56.442Z,49.80
2019-02-27T04:10:56.184Z,63.48
2019-02-27T04:11:56.349Z,61.52
2019-02-27T04:12:56.525Z,66.41
2019-02-27T04:14:03.290Z,48.83
2019-02-27T04:14:56.860Z,51.03
2019-02-27T04:15:57.030Z,53.47
2019-02-27T04:16:57.201Z,57.13
2019-02-27T04:17:57.377Z,57.37
2019-02-27T04:19:03.124Z,52.00
2019-02-27T04:19:57.710Z,61.77
2019-02-27T04:20:57.885Z,48.58
2019-02-27T04:22:01.282Z,48.83
2019-02-27T04:22:58.220Z,48.83
2019-02-27T04:23:58.404Z,49.56
2019-02-27T04:24:58.568Z,64.21
2019-02-27T04:25:58.725Z,60.06
2019-02-27T04:26:58.892Z,61.28
2019-02-27T04:27:59.067Z,52.49
2019-02-27T04:29:04.183Z,56.64
2019-02-27T04:29:59.430Z,51.27
2019-02-27T04:30:59.604Z,56.15
2019-02-27T04:31:59.757Z,48.10
2019-02-27T04:32:59.915Z,53.22
2019-02-27T04:34:01.135Z,48.34
2019-02-27T04:35:00.300Z,49.07
2019-02-27T04:36:00.429Z,50.05
2019-02-27T04:37:00.596Z,48.83
2019-02-27T04:38:00.769Z,63.23
2019-02-27T04:39:02.525Z,49.32
2019-02-27T04:40:01.106Z,48.58
2019-02-27T04:41:01.269Z,51.51
2019-02-27T04:42:01.452Z,47.85
2019-02-27T04:43:01.611Z,51.51
2019-02-27T04:44:05.279Z,66.41
2019-02-27T04:45:01.952Z,48.58
2019-02-27T04:46:02.123Z,51.51
2019-02-27T04:47:02.290Z,62.26
2019-02-27T04:48:02.457Z,49.32
2019-02-27T04:49:04.892Z,53.96
2019-02-27T04:50:02.797Z,50.54
2019-02-27T04:51:02.970Z,62.26
2019-02-27T04:52:03.139Z,54.44
2019-02-27T04:53:03.304Z,49.56
2019-02-27T04:54:06.327Z,50.05
2019-02-27T04:55:03.649Z,53.22
2019-02-27T04:56:03.826Z,55.42
2019-02-27T04:57:03.986Z,54.93
2019-02-27T04:58:04.148Z,60.55
2019-02-27T04:59:04.320Z,63.23
2019-02-27T05:00:04.486Z,70.07
2019-02-27T05:01:04.654Z,64.45
2019-02-27T05:02:04.826Z,56.40
2019-02-27T05:03:04.997Z,56.40
2019-02-27T05:04:05.166Z,61.77
2019-02-27T05:05:06.153Z,69.34
2019-02-27T05:06:05.512Z,52.00
2019-02-27T05:07:05.680Z,51.76
2019-02-27T05:08:05.854Z,72.75
2019-02-27T05:09:06.018Z,54.93
2019-02-27T05:10:07.290Z,50.78
2019-02-27T05:11:06.380Z,52.98
2019-02-27T05:12:06.531Z,51.76
2019-02-27T05:13:06.699Z,50.78
2019-02-27T05:14:06.860Z,58.11
2019-02-27T05:15:07.030Z,72.51
2019-02-27T05:16:07.209Z,52.98
2019-02-27T05:17:07.374Z,56.64
2019-02-27T05:18:07.544Z,55.66
2019-02-27T05:19:07.714Z,54.93
2019-02-27T05:20:11.633Z,64.45
2019-02-27T05:21:08.050Z,60.30
2019-02-27T05:22:08.223Z,61.77
2019-02-27T05:23:08.401Z,60.30
2019-02-27T05:24:08.690Z,56.40
2019-02-27T05:25:08.730Z,64.94
2019-02-27T05:26:08.899Z,65.43
2019-02-27T05:27:09.070Z,63.72
2019-02-27T05:28:09.239Z,56.88
2019-02-27T05:29:09.418Z,65.67
2019-02-27T05:30:12.023Z,70.80
2019-02-27T05:31:09.754Z,65.19
2019-02-27T05:32:09.928Z,63.96
2019-02-27T05:33:10.091Z,61.28
2019-02-27T05:34:13.610Z,61.28
2019-02-27T05:35:10.438Z,61.52
2019-02-27T05:36:10.608Z,75.20
2019-02-27T05:37:10.780Z,75.68
2019-02-27T05:38:10.942Z,74.46
2019-02-27T05:39:11.116Z,76.42
2019-02-27T05:40:11.286Z,74.22
2019-02-27T05:41:11.464Z,75.20
2019-02-27T05:42:13.152Z,75.20
2019-02-27T05:43:13.861Z,65.67
2019-02-27T05:44:11.963Z,64.45
2019-02-27T05:45:12.128Z,68.85
2019-02-27T05:46:12.304Z,74.71
2019-02-27T05:47:12.484Z,58.11
2019-02-27T05:48:12.653Z,57.62
2019-02-27T05:49:12.811Z,64.94
2019-02-27T05:50:12.981Z,68.36
2019-02-27T05:51:13.151Z,63.23
2019-02-27T05:52:14.386Z,55.91
2019-02-27T05:53:13.491Z,60.55
2019-02-27T05:54:13.661Z,63.23
2019-02-27T05:55:13.832Z,62.01
2019-02-27T05:56:16.296Z,59.08
2019-02-27T05:57:14.173Z,59.08
2019-02-27T05:58:14.342Z,55.91
2019-02-27T05:59:14.511Z,56.40
2019-02-27T06:00:14.680Z,68.36
2019-02-27T06:01:14.849Z,80.81
2019-02-27T06:02:15.033Z,80.57
2019-02-27T06:03:15.933Z,81.54
2019-02-27T06:04:15.365Z,80.32
2019-02-27T06:05:15.534Z,81.05
2019-02-27T06:06:15.710Z,82.52
2019-02-27T06:07:18.738Z,64.94
2019-02-27T06:08:16.026Z,63.72
2019-02-27T06:09:16.214Z,67.63
2019-02-27T06:10:19.829Z,57.13
2019-02-27T06:11:16.554Z,67.38
2019-02-27T06:12:16.722Z,77.88
2019-02-27T06:13:16.892Z,65.19
2019-02-27T06:14:21.131Z,65.92
2019-02-27T06:15:17.237Z,67.38
2019-02-27T06:16:17.398Z,63.96
2019-02-27T06:17:17.598Z,64.94
2019-02-27T06:18:22.565Z,64.70
2019-02-27T06:19:17.909Z,60.30
2019-02-27T06:20:18.079Z,66.41
2019-02-27T06:21:18.247Z,63.48
2019-02-27T06:22:18.417Z,66.41
2019-02-27T06:23:18.585Z,65.92
2019-02-27T06:24:18.758Z,62.50
2019-02-27T06:25:23.355Z,61.77
2019-02-27T06:26:19.096Z,69.58
2019-02-27T06:27:19.265Z,61.77
2019-02-27T06:28:19.487Z,55.66
2019-02-27T06:29:23.289Z,73.97
2019-02-27T06:30:19.783Z,70.07
2019-02-27T06:31:19.954Z,64.45
2019-02-27T06:32:20.114Z,65.19
2019-02-27T06:33:20.305Z,62.74
2019-02-27T06:34:22.384Z,61.28
2019-02-27T06:35:20.626Z,58.35
2019-02-27T06:36:20.797Z,57.13
2019-02-27T06:37:20.973Z,65.43
2019-02-27T06:38:25.221Z,63.48
2019-02-27T06:39:21.314Z,66.41
2019-02-27T06:40:21.490Z,62.74
2019-02-27T06:41:21.654Z,61.77
2019-02-27T06:42:21.884Z,62.99
2019-02-27T06:43:21.998Z,66.89
2019-02-27T06:44:22.167Z,61.77
2019-02-27T06:45:22.345Z,70.07
2019-02-27T06:46:22.495Z,61.04
2019-02-27T06:47:22.667Z,75.20
2019-02-27T06:48:22.836Z,62.74
2019-02-27T06:49:23.018Z,63.96
2019-02-27T06:50:25.529Z,58.35
2019-02-27T06:51:23.338Z,59.08
2019-02-27T06:53:23.725Z,76.66
2019-02-27T06:54:23.881Z,72.02
2019-02-27T06:55:25.510Z,75.68
2019-02-27T06:56:24.235Z,77.39
2019-02-27T06:57:24.609Z,72.02
2019-02-27T06:58:24.585Z,67.63
2019-02-27T06:59:25.652Z,68.60
2019-02-27T07:00:24.915Z,71.29
2019-02-27T07:01:25.094Z,63.23
2019-02-27T07:02:25.260Z,59.08
2019-02-27T07:03:29.277Z,60.30
2019-02-27T07:04:26.865Z,68.12
2019-02-27T07:05:25.789Z,60.55
2019-02-27T07:06:25.945Z,62.99
2019-02-27T07:07:26.129Z,58.84
2019-02-27T07:08:26.278Z,59.33
2019-02-27T07:09:26.438Z,62.99
2019-02-27T07:10:26.700Z,65.19
2019-02-27T07:11:26.778Z,68.60
2019-02-27T07:12:26.958Z,66.16
2019-02-27T07:13:29.923Z,63.23
2019-02-27T07:14:27.291Z,70.07
2019-02-27T07:15:27.498Z,67.87
2019-02-27T07:16:27.652Z,64.70
2019-02-27T07:17:29.185Z,62.26
2019-02-27T07:18:27.997Z,62.74
2019-02-27T07:19:28.155Z,64.70
2019-02-27T07:20:28.333Z,65.43
2019-02-27T07:21:32.424Z,63.48
2019-02-27T07:22:28.678Z,73.24
2019-02-27T07:23:28.854Z,70.56
2019-02-27T07:24:30.571Z,65.43
2019-02-27T07:25:29.212Z,63.48
2019-02-27T07:26:29.390Z,75.44
2019-02-27T07:27:31.266Z,66.89
2019-02-27T07:28:29.740Z,66.89
2019-02-27T07:29:29.939Z,69.09
2019-02-27T07:30:30.093Z,69.34
2019-02-27T07:31:30.264Z,68.36
2019-02-27T07:32:31.571Z,67.63
2019-02-27T07:33:30.616Z,66.41
2019-02-27T07:34:30.794Z,70.56
2019-02-27T07:35:30.968Z,68.60
2019-02-27T07:36:31.151Z,70.56
2019-02-27T07:37:31.320Z,68.60
2019-02-27T07:38:31.496Z,67.63
2019-02-27T07:39:32.862Z,67.63
2019-02-27T07:40:31.850Z,67.38
2019-02-27T07:41:32.019Z,61.04
2019-02-27T07:42:32.676Z,70.56
2019-02-27T07:43:32.371Z,57.62
2019-02-27T07:44:35.161Z,62.26
2019-02-27T07:45:32.718Z,69.82
2019-02-27T07:46:32.898Z,66.41
2019-02-27T07:47:33.074Z,62.99
2019-02-27T07:48:33.244Z,65.92
2019-02-27T07:49:33.424Z,82.52
2019-02-27T07:50:33.596Z,65.19
2019-02-27T07:51:33.786Z,69.09
2019-02-27T07:52:33.938Z,67.63
2019-02-27T07:53:34.110Z,66.65
2019-02-27T07:54:34.294Z,77.88
2019-02-27T07:55:34.463Z,69.34
2019-02-27T07:56:34.631Z,70.31
2019-02-27T07:57:35.119Z,73.97
2019-02-27T07:58:34.961Z,72.75
2019-02-27T07:59:37.898Z,68.36
2019-02-27T08:00:35.314Z,84.72
2019-02-27T08:01:43.535Z,66.65
2019-02-27T08:02:36.217Z,72.27
2019-02-27T08:03:35.832Z,60.55
2019-02-27T08:04:35.995Z,66.65
2019-02-27T08:05:36.200Z,61.28
2019-02-27T08:06:37.768Z,62.99
2019-02-27T08:07:36.548Z,63.96
2019-02-27T08:08:36.709Z,66.41
2019-02-27T08:09:36.886Z,62.26
2019-02-27T08:10:37.504Z,60.79
2019-02-27T08:11:37.234Z,71.04
2019-02-27T08:12:37.411Z,61.28
2019-02-27T08:13:37.588Z,60.79
2019-02-27T08:14:37.931Z,66.16
2019-02-27T08:15:37.944Z,65.92
2019-02-27T08:16:38.110Z,60.79
2019-02-27T08:17:38.790Z,62.74
2019-02-27T08:18:38.495Z,62.26
2019-02-27T08:19:38.635Z,60.55
2019-02-27T08:20:38.811Z,59.81
2019-02-27T08:21:38.984Z,62.01
2019-02-27T08:22:39.163Z,59.08
2019-02-27T08:23:39.341Z,60.55
2019-02-27T08:24:39.517Z,63.72
2019-02-27T08:25:39.695Z,60.06
2019-02-27T08:26:39.884Z,60.79
2019-02-27T08:27:42.818Z,60.79
2019-02-27T08:28:40.223Z,60.79
2019-02-27T08:29:40.406Z,59.33
2019-02-27T08:30:40.581Z,68.85
2019-02-27T08:31:40.779Z,56.15
2019-02-27T08:32:40.936Z,60.55
2019-02-27T08:33:41.103Z,65.43
2019-02-27T08:34:41.284Z,58.35
2019-02-27T08:35:41.464Z,63.48
2019-02-27T08:36:41.638Z,61.28
2019-02-27T08:37:41.823Z,60.06
2019-02-27T08:38:41.996Z,61.52
2019-02-27T08:39:42.182Z,71.78
2019-02-27T08:40:42.348Z,62.99
2019-02-27T08:41:42.526Z,74.95
2019-02-27T08:42:42.719Z,70.80
2019-02-27T08:43:42.880Z,61.04
2019-02-27T08:44:45.790Z,60.55
2019-02-27T08:45:43.239Z,69.82
2019-02-27T08:46:43.406Z,61.04
2019-02-27T08:47:44.306Z,62.99
2019-02-27T08:48:43.754Z,62.50
2019-02-27T08:49:43.934Z,75.68
2019-02-27T08:50:44.240Z,68.36
2019-02-27T08:51:44.316Z,65.92
2019-02-27T08:52:44.734Z,63.48
2019-02-27T08:53:44.671Z,64.70
2019-02-27T08:54:44.857Z,59.81
2019-02-27T08:55:45.033Z,60.79
2019-02-27T08:56:47.237Z,74.46
2019-02-27T08:57:45.390Z,62.99
2019-02-27T08:58:45.566Z,71.53
2019-02-27T08:59:45.753Z,63.96
2019-02-27T09:00:47.489Z,71.53
2019-02-27T09:01:46.108Z,60.79
2019-02-27T09:02:46.309Z,61.28
2019-02-27T09:03:46.464Z,60.06
2019-02-27T09:04:46.645Z,66.16
2019-02-27T09:05:46.825Z,61.04
2019-02-27T09:06:47.000Z,67.38
2019-02-27T09:07:47.209Z,58.35
2019-02-27T09:08:47.391Z,61.28
2019-02-27T09:09:51.182Z,60.30
2019-02-27T09:10:47.739Z,60.79
2019-02-27T09:11:47.922Z,61.04
2019-02-27T09:12:48.911Z,63.23
2019-02-27T09:13:48.277Z,64.70
2019-02-27T09:14:48.457Z,60.55
2019-02-27T09:15:48.638Z,66.16
2019-02-27T09:16:49.549Z,60.55
2019-02-27T09:17:49.549Z,62.26
2019-02-27T09:18:49.167Z,64.45
2019-02-27T09:19:49.344Z,60.30
2019-02-27T09:20:53.079Z,60.55
2019-02-27T09:21:49.698Z,60.30
2019-02-27T09:22:49.887Z,60.79
2019-02-27T09:23:50.048Z,63.96
2019-02-27T09:24:50.226Z,61.77
2019-02-27T09:25:57.043Z,62.99
2019-02-27T09:26:50.584Z,67.14
2019-02-27T09:27:50.767Z,61.52
2019-02-27T09:28:50.950Z,60.55
2019-02-27T09:29:52.305Z,74.95
2019-02-27T09:31:51.485Z,67.63
2019-02-27T09:32:51.660Z,64.94
2019-02-27T09:33:53.439Z,62.74
2019-02-27T09:34:52.009Z,61.77
2019-02-27T09:35:52.194Z,60.79
2019-02-27T09:36:52.400Z,65.43
2019-02-27T09:37:52.581Z,61.52
2019-02-27T09:38:57.358Z,62.01
2019-02-27T09:39:52.941Z,61.04
2019-02-27T09:40:53.118Z,65.92
2019-02-27T09:41:53.305Z,67.38
2019-02-27T09:42:53.930Z,68.85
2019-02-27T09:43:53.663Z,65.67
2019-02-27T09:44:53.856Z,61.28
2019-02-27T09:45:54.026Z,61.52
2019-02-27T09:46:54.205Z,57.86
2019-02-27T09:47:54.397Z,57.13
2019-02-27T09:48:55.857Z,62.74
2019-02-27T09:49:54.762Z,59.81
2019-02-27T09:50:56.920Z,59.81
2019-02-27T09:51:56.290Z,59.57
2019-02-27T09:52:55.310Z,59.08
2019-02-27T09:53:55.504Z,59.33
2019-02-27T09:54:55.664Z,60.30
2019-02-27T09:55:55.846Z,64.45
2019-02-27T09:56:56.029Z,62.50
2019-02-27T09:57:56.207Z,61.04
2019-02-27T09:58:56.393Z,72.02
2019-02-27T09:59:56.574Z,68.36
2019-02-27T10:00:59.179Z,66.41
2019-02-27T10:01:57.330Z,63.48
2019-02-27T10:02:58.237Z,65.67
2019-02-27T10:03:57.321Z,73.00
2019-02-27T10:05:01.434Z,63.96
2019-02-27T10:05:57.689Z,63.72
2019-02-27T10:06:57.860Z,62.01
2019-02-27T10:07:58.056Z,59.57
2019-02-27T10:08:59.073Z,59.81
2019-02-27T10:09:58.426Z,64.70
2019-02-27T10:10:58.607Z,62.26
2019-02-27T10:11:58.794Z,58.11
2019-02-27T10:12:59.895Z,75.44
2019-02-27T10:13:59.180Z,74.22
2019-02-27T10:14:59.355Z,72.51
2019-02-27T10:16:01.362Z,63.72
2019-02-27T10:16:59.726Z,70.56
2019-02-27T10:17:59.912Z,67.63
2019-02-27T10:19:00.099Z,58.35
2019-02-27T10:20:02.439Z,69.09
2019-02-27T10:21:00.473Z,69.58
2019-02-27T10:22:00.669Z,61.52
2019-02-27T10:23:00.860Z,68.36
2019-02-27T10:24:04.441Z,63.96
2019-02-27T10:25:01.222Z,64.21
2019-02-27T10:26:01.402Z,60.55
2019-02-27T10:27:01.593Z,63.48
2019-02-27T10:28:04.300Z,64.21
2019-02-27T10:29:01.962Z,73.73
2019-02-27T10:30:11.102Z,62.74
2019-02-27T10:31:02.326Z,65.19
2019-02-27T10:32:02.523Z,60.79
2019-02-27T10:33:03.500Z,67.63
2019-02-27T10:34:02.874Z,61.28
2019-02-27T10:35:03.043Z,70.31
2019-02-27T10:36:04.286Z,64.45
2019-02-27T10:37:03.489Z,70.31
2019-02-27T10:38:09.008Z,71.29
2019-02-27T10:39:05.082Z,71.78
2019-02-27T10:40:05.090Z,61.28
2019-02-27T10:41:08.065Z,61.77
2019-02-27T10:42:07.848Z,62.01
2019-02-27T10:43:04.935Z,62.50
2019-02-27T10:44:10.559Z,62.01
2019-02-27T10:46:05.684Z,62.26
2019-02-27T10:47:06.239Z,61.52
2019-02-27T10:49:09.926Z,63.72
2019-02-27T10:50:07.805Z,60.06
2019-02-27T10:52:08.070Z,60.79
2019-02-27T10:58:39.490Z,74.46
2019-02-27T10:59:40.131Z,60.06
2019-02-27T11:00:42.376Z,65.19
2019-02-27T11:02:47.444Z,83.01
2019-02-27T11:03:47.880Z,82.28
2019-02-27T11:04:44.570Z,81.79
2019-02-27T11:05:41.103Z,82.52
2019-02-27T11:06:41.007Z,80.32
2019-02-27T11:07:41.489Z,69.09
2019-02-27T11:08:41.520Z,61.77
2019-02-27T11:09:42.501Z,59.81
2019-02-27T11:10:44.065Z,65.19
2019-02-27T11:11:44.024Z,61.04
2019-02-27T11:12:42.947Z,58.11
2019-02-27T11:13:42.144Z,60.79
2019-02-27T11:14:41.934Z,58.35
2019-02-27T11:15:44.552Z,62.99
2019-02-27T11:16:42.162Z,63.96
2019-02-27T11:17:43.307Z,60.06
2019-02-27T11:18:42.907Z,73.97
2019-02-27T11:19:42.943Z,67.63
2019-02-27T11:20:43.292Z,55.42
2019-02-27T11:21:44.124Z,63.23
2019-02-27T11:22:45.102Z,60.30
2019-02-27T11:23:43.984Z,69.58
2019-02-27T11:24:49.126Z,62.99
2019-02-27T11:25:43.980Z,60.79
2019-02-27T11:26:44.265Z,60.79
2019-02-27T11:27:44.322Z,58.84
2019-02-27T11:28:47.543Z,61.28
2019-02-27T11:29:44.799Z,61.28
2019-02-27T11:30:44.940Z,62.50
2019-02-27T11:31:45.535Z,64.45
2019-02-27T11:32:45.638Z,62.99
2019-02-27T11:33:45.831Z,59.08
2019-02-27T11:34:48.435Z,62.99
2019-02-27T11:35:46.004Z,59.81
2019-02-27T11:36:46.225Z,60.79
2019-02-27T11:37:47.524Z,58.11
2019-02-27T11:38:46.600Z,55.66
2019-02-27T11:39:46.907Z,61.28
2019-02-27T11:40:46.941Z,66.65
2019-02-27T11:41:48.462Z,58.35
2019-02-27T11:42:47.573Z,63.72
2019-02-27T11:43:47.543Z,58.11
2019-02-27T11:44:49.744Z,58.35
2019-02-27T11:45:47.964Z,63.72
2019-02-27T11:46:58.417Z,66.65
2019-02-27T11:47:48.587Z,60.30
2019-02-27T11:48:48.584Z,59.33
2019-02-27T11:49:48.788Z,61.04
2019-02-27T11:50:48.979Z,65.43
2019-02-27T11:51:50.624Z,64.70
2019-02-27T11:52:49.378Z,59.33
2019-02-27T11:53:49.474Z,59.33
2019-02-27T11:54:49.676Z,59.33
2019-02-27T11:55:49.869Z,61.28
2019-02-27T11:56:51.499Z,68.36
2019-02-27T11:57:50.350Z,61.77
2019-02-27T11:58:50.604Z,61.77
2019-02-27T11:59:50.671Z,66.89
2019-02-27T12:00:50.890Z,68.36
2019-02-27T12:01:55.365Z,59.08
2019-02-27T12:02:51.235Z,62.26
2019-02-27T12:03:51.539Z,60.30
2019-02-27T12:04:55.387Z,62.74
2019-02-27T12:05:51.864Z,62.99
2019-02-27T12:06:51.989Z,62.74
2019-02-27T12:07:52.206Z,65.92
2019-02-27T12:08:52.351Z,73.00
2019-02-27T12:09:52.578Z,60.79
2019-02-27T12:10:52.846Z,55.42
2019-02-27T12:11:53.005Z,61.28
2019-02-27T12:12:53.120Z,64.21
2019-02-27T12:13:54.810Z,59.33
2019-02-27T12:14:53.503Z,65.19
2019-02-27T12:15:53.703Z,63.23
2019-02-27T12:16:53.836Z,57.62
2019-02-27T12:17:54.023Z,60.55
2019-02-27T12:18:54.185Z,63.23
2019-02-27T12:19:54.467Z,59.81
2019-02-27T12:20:54.627Z,58.59
2019-02-27T12:21:59.482Z,60.06
2019-02-27T12:22:54.981Z,62.01
2019-02-27T12:23:55.169Z,66.65
2019-02-27T12:24:55.366Z,60.06
2019-02-27T12:25:55.557Z,61.28
2019-02-27T12:26:55.751Z,55.42
2019-02-27T12:27:55.924Z,59.08
2019-02-27T12:28:56.100Z,68.36
2019-02-27T12:29:56.278Z,66.65
2019-02-27T12:30:56.571Z,68.12
2019-02-27T12:31:56.623Z,57.86
2019-02-27T12:32:57.193Z,66.16
2019-02-27T12:33:57.001Z,71.53
2019-02-27T12:34:57.180Z,78.86
2019-02-27T12:35:57.368Z,73.49
2019-02-27T12:36:57.545Z,75.44
2019-02-27T12:37:57.732Z,66.89
2019-02-27T12:38:57.907Z,58.59
2019-02-27T12:39:58.092Z,61.04
2019-02-27T12:40:59.036Z,61.52
2019-02-27T12:41:58.457Z,73.00
2019-02-27T12:42:58.658Z,68.85
2019-02-27T12:44:59.005Z,73.24
2019-02-27T12:46:00.887Z,67.14
2019-02-27T12:46:59.384Z,62.01
2019-02-27T12:47:59.567Z,71.04
2019-02-27T12:48:59.745Z,69.09
2019-02-27T12:49:59.940Z,68.12
2019-02-27T12:51:03.427Z,63.96
2019-02-27T12:52:00.290Z,64.45
2019-02-27T12:53:00.485Z,61.04
2019-02-27T12:54:00.660Z,63.23
2019-02-27T12:55:01.785Z,64.21
2019-02-27T12:56:01.024Z,62.74
2019-02-27T12:57:01.208Z,58.11
2019-02-27T12:58:01.380Z,57.37
2019-02-27T12:59:01.576Z,62.74
2019-02-27T13:00:01.766Z,75.93
2019-02-27T13:01:01.933Z,72.02
2019-02-27T13:02:08.271Z,70.07
2019-02-27T13:03:02.298Z,65.92
2019-02-27T13:04:02.481Z,63.72
2019-02-27T13:05:02.662Z,60.79
2019-02-27T13:06:02.850Z,63.23
2019-02-27T13:07:03.029Z,72.02
2019-02-27T13:08:03.209Z,68.85
2019-02-27T13:09:03.405Z,66.16